sensor_id;sensor_type;location;lat;lon;timestamp;P1;durP1;ratioP1;P2;durP2;ratioP2
76228;SDS011;65021;53.174;18.160;2023-02-24T00:01:49;45.90;;;19.60;;
76228;SDS011;65021;53.174;18.160;2023-02-24T00:04:18;53.40;;;24.00;;
76228;SDS011;65021;53.174;18.160;2023-02-24T00:06:46;54.20;;;25.60;;
76228;SDS011;65021;53.174;18.160;2023-02-24T00:09:14;48.80;;;23.00;;
76228;SDS011;65021;53.174;18.160;2023-02-24T00:11:44;57.80;;;25.70;;
76228;SDS011;65021;53.174;18.160;2023-02-24T00:16:44;51.00;;;21.20;;
76228;SDS011;65021;53.174;18.160;2023-02-24T00:19:12;51.10;;;24.30;;
76228;SDS011;65021;53.174;18.160;2023-02-24T00:21:41;52.20;;;23.30;;
76228;SDS011;65021;53.174;18.160;2023-02-24T00:24:08;43.90;;;20.70;;
76228;SDS011;65021;53.174;18.160;2023-02-24T00:26:35;51.00;;;24.20;;
76228;SDS011;65021;53.174;18.160;2023-02-24T00:29:05;50.30;;;22.60;;
76228;SDS011;65021;53.174;18.160;2023-02-24T00:31:34;50.40;;;22.70;;
76228;SDS011;65021;53.174;18.160;2023-02-24T00:34:04;43.70;;;20.00;;
76228;SDS011;65021;53.174;18.160;2023-02-24T00:36:32;52.60;;;22.60;;
76228;SDS011;65021;53.174;18.160;2023-02-24T00:39:03;38.60;;;16.60;;
76228;SDS011;65021;53.174;18.160;2023-02-24T00:41:41;48.10;;;21.80;;
76228;SDS011;65021;53.174;18.160;2023-02-24T00:44:09;52.10;;;21.40;;
76228;SDS011;65021;53.174;18.160;2023-02-24T00:46:42;43.20;;;18.50;;
76228;SDS011;65021;53.174;18.160;2023-02-24T00:49:12;44.10;;;19.00;;
76228;SDS011;65021;53.174;18.160;2023-02-24T00:51:42;42.30;;;19.80;;
76228;SDS011;65021;53.174;18.160;2023-02-24T00:54:11;35.50;;;15.60;;
76228;SDS011;65021;53.174;18.160;2023-02-24T00:56:40;40.40;;;17.00;;
76228;SDS011;65021;53.174;18.160;2023-02-24T00:59:08;42.60;;;19.00;;
76228;SDS011;65021;53.174;18.160;2023-02-24T01:01:39;31.80;;;14.50;;
76228;SDS011;65021;53.174;18.160;2023-02-24T01:04:07;37.40;;;18.30;;
76228;SDS011;65021;53.174;18.160;2023-02-24T01:06:41;38.90;;;17.50;;
76228;SDS011;65021;53.174;18.160;2023-02-24T01:09:11;40.60;;;17.70;;
76228;SDS011;65021;53.174;18.160;2023-02-24T01:14:27;41.50;;;17.30;;
76228;SDS011;65021;53.174;18.160;2023-02-24T01:16:55;17.70;;;7.10;;
76228;SDS011;65021;53.174;18.160;2023-02-24T01:19:23;36.50;;;16.70;;
76228;SDS011;65021;53.174;18.160;2023-02-24T01:21:56;40.80;;;17.50;;
76228;SDS011;65021;53.174;18.160;2023-02-24T01:24:24;36.60;;;15.60;;
76228;SDS011;65021;53.174;18.160;2023-02-24T01:26:51;33.30;;;14.60;;
76228;SDS011;65021;53.174;18.160;2023-02-24T01:29:18;22.60;;;8.20;;
76228;SDS011;65021;53.174;18.160;2023-02-24T01:31:47;40.30;;;16.30;;
76228;SDS011;65021;53.174;18.160;2023-02-24T01:34:15;32.80;;;15.50;;
76228;SDS011;65021;53.174;18.160;2023-02-24T01:36:42;34.80;;;15.40;;
76228;SDS011;65021;53.174;18.160;2023-02-24T01:39:10;15.60;;;5.50;;
76228;SDS011;65021;53.174;18.160;2023-02-24T01:41:39;35.70;;;15.00;;
76228;SDS011;65021;53.174;18.160;2023-02-24T01:46:48;36.70;;;16.70;;
76228;SDS011;65021;53.174;18.160;2023-02-24T01:49:25;33.50;;;16.20;;
76228;SDS011;65021;53.174;18.160;2023-02-24T01:52:01;37.90;;;15.90;;
76228;SDS011;65021;53.174;18.160;2023-02-24T01:54:41;37.40;;;15.60;;
76228;SDS011;65021;53.174;18.160;2023-02-24T01:57:20;35.70;;;16.10;;
76228;SDS011;65021;53.174;18.160;2023-02-24T01:59:51;38.20;;;16.40;;
76228;SDS011;65021;53.174;18.160;2023-02-24T02:02:20;41.40;;;17.40;;
76228;SDS011;65021;53.174;18.160;2023-02-24T02:04:49;33.70;;;16.00;;
76228;SDS011;65021;53.174;18.160;2023-02-24T02:07:20;36.70;;;16.70;;
76228;SDS011;65021;53.174;18.160;2023-02-24T02:09:48;31.10;;;12.50;;
76228;SDS011;65021;53.174;18.160;2023-02-24T02:12:20;35.00;;;16.70;;
76228;SDS011;65021;53.174;18.160;2023-02-24T02:14:48;39.60;;;16.60;;
76228;SDS011;65021;53.174;18.160;2023-02-24T02:26:37;34.20;;;16.30;;
76228;SDS011;65021;53.174;18.160;2023-02-24T02:32:24;33.00;;;14.20;;
76228;SDS011;65021;53.174;18.160;2023-02-24T02:35:00;36.90;;;16.20;;
76228;SDS011;65021;53.174;18.160;2023-02-24T02:37:33;31.60;;;13.50;;
76228;SDS011;65021;53.174;18.160;2023-02-24T02:40:22;34.70;;;15.90;;
76228;SDS011;65021;53.174;18.160;2023-02-24T02:45:44;30.40;;;11.30;;
76228;SDS011;65021;53.174;18.160;2023-02-24T02:50:53;36.30;;;15.70;;
76228;SDS011;65021;53.174;18.160;2023-02-24T02:57:03;35.80;;;15.60;;
76228;SDS011;65021;53.174;18.160;2023-02-24T02:59:13;41.00;;;16.10;;
76228;SDS011;65021;53.174;18.160;2023-02-24T03:01:48;39.10;;;16.30;;
76228;SDS011;65021;53.174;18.160;2023-02-24T03:04:18;39.90;;;14.80;;
76228;SDS011;65021;53.174;18.160;2023-02-24T03:06:55;42.30;;;15.90;;
76228;SDS011;65021;53.174;18.160;2023-02-24T03:09:26;33.90;;;13.50;;
76228;SDS011;65021;53.174;18.160;2023-02-24T03:11:57;30.20;;;11.60;;
76228;SDS011;65021;53.174;18.160;2023-02-24T03:14:30;38.20;;;15.60;;
76228;SDS011;65021;53.174;18.160;2023-02-24T03:17:06;32.50;;;12.10;;
76228;SDS011;65021;53.174;18.160;2023-02-24T03:19:38;37.20;;;14.70;;
76228;SDS011;65021;53.174;18.160;2023-02-24T03:24:38;36.50;;;14.00;;
76228;SDS011;65021;53.174;18.160;2023-02-24T03:32:31;40.10;;;14.80;;
76228;SDS011;65021;53.174;18.160;2023-02-24T03:35:11;35.70;;;14.10;;
76228;SDS011;65021;53.174;18.160;2023-02-24T03:37:42;40.20;;;16.20;;
76228;SDS011;65021;53.174;18.160;2023-02-24T03:40:10;38.80;;;15.50;;
76228;SDS011;65021;53.174;18.160;2023-02-24T03:42:45;37.10;;;13.90;;
76228;SDS011;65021;53.174;18.160;2023-02-24T03:45:15;33.40;;;12.90;;
76228;SDS011;65021;53.174;18.160;2023-02-24T03:47:42;33.00;;;14.70;;
76228;SDS011;65021;53.174;18.160;2023-02-24T03:50:13;37.20;;;15.20;;
76228;SDS011;65021;53.174;18.160;2023-02-24T03:52:54;34.60;;;14.50;;
76228;SDS011;65021;53.174;18.160;2023-02-24T04:06:22;34.60;;;13.90;;
76228;SDS011;65021;53.174;18.160;2023-02-24T04:08:55;31.40;;;12.00;;
76228;SDS011;65021;53.174;18.160;2023-02-24T04:14:07;37.00;;;13.90;;
76228;SDS011;65021;53.174;18.160;2023-02-24T04:16:40;35.60;;;15.30;;
76228;SDS011;65021;53.174;18.160;2023-02-24T04:19:14;38.20;;;15.10;;
76228;SDS011;65021;53.174;18.160;2023-02-24T04:21:44;37.40;;;13.50;;
76228;SDS011;65021;53.174;18.160;2023-02-24T04:24:14;37.60;;;14.10;;
76228;SDS011;65021;53.174;18.160;2023-02-24T04:26:44;32.40;;;13.50;;
76228;SDS011;65021;53.174;18.160;2023-02-24T04:29:14;37.70;;;13.60;;
76228;SDS011;65021;53.174;18.160;2023-02-24T04:31:46;27.90;;;10.60;;
76228;SDS011;65021;53.174;18.160;2023-02-24T04:34:15;33.60;;;13.40;;
76228;SDS011;65021;53.174;18.160;2023-02-24T04:36:45;31.20;;;11.00;;
76228;SDS011;65021;53.174;18.160;2023-02-24T04:39:16;42.30;;;13.60;;
76228;SDS011;65021;53.174;18.160;2023-02-24T04:41:46;31.10;;;12.00;;
76228;SDS011;65021;53.174;18.160;2023-02-24T04:44:15;29.20;;;12.80;;
76228;SDS011;65021;53.174;18.160;2023-02-24T04:46:46;32.40;;;10.70;;
76228;SDS011;65021;53.174;18.160;2023-02-24T04:49:15;30.10;;;12.70;;
76228;SDS011;65021;53.174;18.160;2023-02-24T04:51:43;34.30;;;13.80;;
76228;SDS011;65021;53.174;18.160;2023-02-24T04:54:11;37.30;;;14.00;;
76228;SDS011;65021;53.174;18.160;2023-02-24T04:56:42;35.80;;;12.70;;
76228;SDS011;65021;53.174;18.160;2023-02-24T04:59:10;32.70;;;13.50;;
76228;SDS011;65021;53.174;18.160;2023-02-24T05:01:36;33.70;;;12.60;;
76228;SDS011;65021;53.174;18.160;2023-02-24T05:04:07;28.10;;;11.10;;
76228;SDS011;65021;53.174;18.160;2023-02-24T05:06:34;34.10;;;12.40;;
76228;SDS011;65021;53.174;18.160;2023-02-24T05:09:00;34.60;;;12.90;;
76228;SDS011;65021;53.174;18.160;2023-02-24T05:11:35;30.20;;;12.10;;
76228;SDS011;65021;53.174;18.160;2023-02-24T05:14:03;34.60;;;11.20;;
76228;SDS011;65021;53.174;18.160;2023-02-24T05:16:29;31.40;;;12.50;;
76228;SDS011;65021;53.174;18.160;2023-02-24T05:18:56;29.80;;;11.90;;
76228;SDS011;65021;53.174;18.160;2023-02-24T05:21:41;38.00;;;11.60;;
76228;SDS011;65021;53.174;18.160;2023-02-24T05:24:07;30.00;;;10.20;;
76228;SDS011;65021;53.174;18.160;2023-02-24T05:26:37;29.70;;;9.60;;
76228;SDS011;65021;53.174;18.160;2023-02-24T05:29:06;41.80;;;13.00;;
76228;SDS011;65021;53.174;18.160;2023-02-24T05:31:33;37.30;;;14.40;;
76228;SDS011;65021;53.174;18.160;2023-02-24T05:34:03;36.40;;;13.60;;
76228;SDS011;65021;53.174;18.160;2023-02-24T05:36:38;31.00;;;11.30;;
76228;SDS011;65021;53.174;18.160;2023-02-24T05:39:06;43.60;;;14.50;;
76228;SDS011;65021;53.174;18.160;2023-02-24T05:41:38;35.60;;;13.20;;
76228;SDS011;65021;53.174;18.160;2023-02-24T05:44:08;33.70;;;12.00;;
76228;SDS011;65021;53.174;18.160;2023-02-24T05:46:41;35.00;;;11.90;;
76228;SDS011;65021;53.174;18.160;2023-02-24T05:49:14;33.40;;;12.70;;
76228;SDS011;65021;53.174;18.160;2023-02-24T05:51:49;36.70;;;12.30;;
76228;SDS011;65021;53.174;18.160;2023-02-24T05:54:20;35.90;;;12.30;;
76228;SDS011;65021;53.174;18.160;2023-02-24T05:56:50;36.20;;;12.10;;
76228;SDS011;65021;53.174;18.160;2023-02-24T05:59:17;32.00;;;12.90;;
76228;SDS011;65021;53.174;18.160;2023-02-24T06:01:46;35.00;;;12.50;;
76228;SDS011;65021;53.174;18.160;2023-02-24T06:04:14;33.90;;;12.30;;
76228;SDS011;65021;53.174;18.160;2023-02-24T06:07:05;30.70;;;12.10;;
76228;SDS011;65021;53.174;18.160;2023-02-24T06:09:39;29.90;;;11.40;;
76228;SDS011;65021;53.174;18.160;2023-02-24T06:12:08;33.00;;;11.40;;
76228;SDS011;65021;53.174;18.160;2023-02-24T06:14:35;37.00;;;13.50;;
76228;SDS011;65021;53.174;18.160;2023-02-24T06:17:01;31.60;;;11.70;;
76228;SDS011;65021;53.174;18.160;2023-02-24T06:19:28;32.70;;;12.50;;
76228;SDS011;65021;53.174;18.160;2023-02-24T06:21:57;29.50;;;10.10;;
76228;SDS011;65021;53.174;18.160;2023-02-24T06:24:31;25.20;;;8.10;;
76228;SDS011;65021;53.174;18.160;2023-02-24T06:26:58;25.30;;;9.30;;
76228;SDS011;65021;53.174;18.160;2023-02-24T06:29:35;22.40;;;7.30;;
76228;SDS011;65021;53.174;18.160;2023-02-24T06:32:03;18.20;;;6.50;;
76228;SDS011;65021;53.174;18.160;2023-02-24T06:34:36;15.70;;;4.90;;
76228;SDS011;65021;53.174;18.160;2023-02-24T06:37:04;16.50;;;6.20;;
76228;SDS011;65021;53.174;18.160;2023-02-24T06:39:32;10.80;;;4.60;;
76228;SDS011;65021;53.174;18.160;2023-02-24T06:42:00;11.70;;;4.50;;
76228;SDS011;65021;53.174;18.160;2023-02-24T06:44:30;6.20;;;2.10;;
76228;SDS011;65021;53.174;18.160;2023-02-24T06:46:59;10.00;;;3.70;;
76228;SDS011;65021;53.174;18.160;2023-02-24T06:49:26;9.70;;;3.40;;
76228;SDS011;65021;53.174;18.160;2023-02-24T06:51:54;9.30;;;3.00;;
76228;SDS011;65021;53.174;18.160;2023-02-24T06:54:23;8.40;;;3.10;;
76228;SDS011;65021;53.174;18.160;2023-02-24T06:56:54;5.70;;;1.70;;
76228;SDS011;65021;53.174;18.160;2023-02-24T06:59:20;7.90;;;2.90;;
76228;SDS011;65021;53.174;18.160;2023-02-24T07:01:47;8.90;;;2.70;;
76228;SDS011;65021;53.174;18.160;2023-02-24T07:04:15;8.90;;;2.40;;
76228;SDS011;65021;53.174;18.160;2023-02-24T07:06:43;7.60;;;2.90;;
76228;SDS011;65021;53.174;18.160;2023-02-24T07:09:13;7.20;;;2.30;;
76228;SDS011;65021;53.174;18.160;2023-02-24T07:11:42;7.00;;;2.30;;
76228;SDS011;65021;53.174;18.160;2023-02-24T07:14:20;6.90;;;2.10;;
76228;SDS011;65021;53.174;18.160;2023-02-24T07:16:49;9.10;;;2.70;;
76228;SDS011;65021;53.174;18.160;2023-02-24T07:19:26;8.80;;;2.60;;
76228;SDS011;65021;53.174;18.160;2023-02-24T07:21:56;10.70;;;3.00;;
76228;SDS011;65021;53.174;18.160;2023-02-24T07:24:29;8.20;;;2.30;;
76228;SDS011;65021;53.174;18.160;2023-02-24T07:27:04;7.20;;;2.30;;
76228;SDS011;65021;53.174;18.160;2023-02-24T07:29:34;5.90;;;1.60;;
76228;SDS011;65021;53.174;18.160;2023-02-24T07:32:01;7.40;;;2.20;;
76228;SDS011;65021;53.174;18.160;2023-02-24T07:34:31;9.60;;;2.80;;
76228;SDS011;65021;53.174;18.160;2023-02-24T07:36:58;8.60;;;2.50;;
76228;SDS011;65021;53.174;18.160;2023-02-24T07:39:27;8.40;;;2.20;;
76228;SDS011;65021;53.174;18.160;2023-02-24T07:41:54;9.80;;;2.40;;
76228;SDS011;65021;53.174;18.160;2023-02-24T07:44:22;6.40;;;2.40;;
76228;SDS011;65021;53.174;18.160;2023-02-24T07:46:49;9.00;;;3.00;;
76228;SDS011;65021;53.174;18.160;2023-02-24T07:49:21;7.10;;;1.90;;
76228;SDS011;65021;53.174;18.160;2023-02-24T07:51:51;9.50;;;3.10;;
76228;SDS011;65021;53.174;18.160;2023-02-24T07:54:20;7.70;;;2.50;;
76228;SDS011;65021;53.174;18.160;2023-02-24T07:56:50;7.60;;;2.40;;
76228;SDS011;65021;53.174;18.160;2023-02-24T07:59:25;6.00;;;1.60;;
76228;SDS011;65021;53.174;18.160;2023-02-24T08:01:53;9.80;;;2.40;;
76228;SDS011;65021;53.174;18.160;2023-02-24T08:04:22;8.20;;;1.90;;
76228;SDS011;65021;53.174;18.160;2023-02-24T08:06:50;4.50;;;1.50;;
76228;SDS011;65021;53.174;18.160;2023-02-24T08:09:22;6.90;;;1.50;;
76228;SDS011;65021;53.174;18.160;2023-02-24T08:14:43;6.10;;;1.80;;
76228;SDS011;65021;53.174;18.160;2023-02-24T08:17:19;7.80;;;2.20;;
76228;SDS011;65021;53.174;18.160;2023-02-24T08:19:48;10.60;;;2.40;;
76228;SDS011;65021;53.174;18.160;2023-02-24T08:22:26;6.40;;;1.50;;
76228;SDS011;65021;53.174;18.160;2023-02-24T08:25:00;9.20;;;2.20;;
76228;SDS011;65021;53.174;18.160;2023-02-24T08:27:31;6.10;;;1.70;;
76228;SDS011;65021;53.174;18.160;2023-02-24T08:30:04;5.80;;;1.70;;
76228;SDS011;65021;53.174;18.160;2023-02-24T08:32:33;11.20;;;2.30;;
76228;SDS011;65021;53.174;18.160;2023-02-24T08:35:12;6.50;;;1.50;;
76228;SDS011;65021;53.174;18.160;2023-02-24T08:37:42;9.50;;;1.80;;
76228;SDS011;65021;53.174;18.160;2023-02-24T08:40:15;6.70;;;1.40;;
76228;SDS011;65021;53.174;18.160;2023-02-24T08:45:51;5.80;;;1.80;;
76228;SDS011;65021;53.174;18.160;2023-02-24T08:48:25;5.50;;;1.80;;
76228;SDS011;65021;53.174;18.160;2023-02-24T08:53:36;9.40;;;3.30;;
76228;SDS011;65021;53.174;18.160;2023-02-24T08:56:06;7.20;;;1.90;;
76228;SDS011;65021;53.174;18.160;2023-02-24T08:58:37;9.20;;;3.10;;
76228;SDS011;65021;53.174;18.160;2023-02-24T09:01:10;8.50;;;2.30;;
76228;SDS011;65021;53.174;18.160;2023-02-24T09:03:47;8.70;;;2.30;;
76228;SDS011;65021;53.174;18.160;2023-02-24T09:06:18;10.00;;;2.50;;
76228;SDS011;65021;53.174;18.160;2023-02-24T09:08:54;5.00;;;1.50;;
76228;SDS011;65021;53.174;18.160;2023-02-24T09:11:58;7.10;;;1.70;;
76228;SDS011;65021;53.174;18.160;2023-02-24T09:14:29;7.70;;;1.70;;
76228;SDS011;65021;53.174;18.160;2023-02-24T09:17:02;7.00;;;1.70;;
76228;SDS011;65021;53.174;18.160;2023-02-24T09:19:35;4.90;;;1.50;;
76228;SDS011;65021;53.174;18.160;2023-02-24T09:22:29;8.80;;;2.00;;
76228;SDS011;65021;53.174;18.160;2023-02-24T09:24:58;6.40;;;1.60;;
76228;SDS011;65021;53.174;18.160;2023-02-24T09:27:46;8.10;;;1.90;;
76228;SDS011;65021;53.174;18.160;2023-02-24T09:30:21;5.10;;;1.70;;
76228;SDS011;65021;53.174;18.160;2023-02-24T09:33:09;10.00;;;3.10;;
76228;SDS011;65021;53.174;18.160;2023-02-24T09:35:44;4.50;;;1.50;;
76228;SDS011;65021;53.174;18.160;2023-02-24T09:38:13;9.30;;;2.60;;
76228;SDS011;65021;53.174;18.160;2023-02-24T09:40:45;10.50;;;2.70;;
76228;SDS011;65021;53.174;18.160;2023-02-24T09:43:21;8.10;;;1.90;;
76228;SDS011;65021;53.174;18.160;2023-02-24T09:45:58;10.50;;;2.70;;
76228;SDS011;65021;53.174;18.160;2023-02-24T09:48:53;6.60;;;1.90;;
76228;SDS011;65021;53.174;18.160;2023-02-24T09:51:30;11.70;;;2.40;;
76228;SDS011;65021;53.174;18.160;2023-02-24T09:54:11;6.80;;;1.60;;
76228;SDS011;65021;53.174;18.160;2023-02-24T09:56:51;9.40;;;2.90;;
76228;SDS011;65021;53.174;18.160;2023-02-24T10:05:21;5.10;;;2.00;;
76228;SDS011;65021;53.174;18.160;2023-02-24T10:07:52;10.40;;;2.80;;
76228;SDS011;65021;53.174;18.160;2023-02-24T10:10:22;6.40;;;1.80;;
76228;SDS011;65021;53.174;18.160;2023-02-24T10:13:15;6.40;;;2.10;;
76228;SDS011;65021;53.174;18.160;2023-02-24T10:15:55;9.90;;;2.80;;
76228;SDS011;65021;53.174;18.160;2023-02-24T10:24:19;7.80;;;1.80;;
76228;SDS011;65021;53.174;18.160;2023-02-24T10:27:00;7.30;;;1.60;;
76228;SDS011;65021;53.174;18.160;2023-02-24T10:34:49;7.30;;;2.40;;
76228;SDS011;65021;53.174;18.160;2023-02-24T10:37:18;11.60;;;3.00;;
76228;SDS011;65021;53.174;18.160;2023-02-24T10:39:48;6.90;;;1.80;;
76228;SDS011;65021;53.174;18.160;2023-02-24T10:42:28;9.50;;;2.60;;
76228;SDS011;65021;53.174;18.160;2023-02-24T10:45:30;6.90;;;1.90;;
76228;SDS011;65021;53.174;18.160;2023-02-24T10:47:57;5.60;;;1.10;;
76228;SDS011;65021;53.174;18.160;2023-02-24T10:53:04;4.50;;;1.50;;
76228;SDS011;65021;53.174;18.160;2023-02-24T10:58:22;7.40;;;1.60;;
76228;SDS011;65021;53.174;18.160;2023-02-24T11:01:26;6.50;;;1.90;;
76228;SDS011;65021;53.174;18.160;2023-02-24T11:04:20;7.80;;;1.70;;
76228;SDS011;65021;53.174;18.160;2023-02-24T11:07:03;7.10;;;1.50;;
76228;SDS011;65021;53.174;18.160;2023-02-24T11:10:03;7.30;;;1.70;;
76228;SDS011;65021;53.174;18.160;2023-02-24T11:12:41;5.40;;;1.60;;
76228;SDS011;65021;53.174;18.160;2023-02-24T11:15:31;6.50;;;2.10;;
76228;SDS011;65021;53.174;18.160;2023-02-24T11:18:23;8.60;;;1.90;;
76228;SDS011;65021;53.174;18.160;2023-02-24T11:20:53;7.60;;;1.80;;
76228;SDS011;65021;53.174;18.160;2023-02-24T11:23:24;6.90;;;1.80;;
76228;SDS011;65021;53.174;18.160;2023-02-24T11:26:23;7.20;;;2.00;;
76228;SDS011;65021;53.174;18.160;2023-02-24T11:34:36;5.70;;;1.60;;
76228;SDS011;65021;53.174;18.160;2023-02-24T11:42:43;5.90;;;1.20;;
76228;SDS011;65021;53.174;18.160;2023-02-24T11:53:27;5.20;;;1.50;;
76228;SDS011;65021;53.174;18.160;2023-02-24T11:59:30;7.50;;;2.50;;
76228;SDS011;65021;53.174;18.160;2023-02-24T12:10:15;8.40;;;2.00;;
76228;SDS011;65021;53.174;18.160;2023-02-24T12:15:37;9.50;;;2.50;;
76228;SDS011;65021;53.174;18.160;2023-02-24T12:18:12;7.90;;;2.40;;
76228;SDS011;65021;53.174;18.160;2023-02-24T12:20:53;7.50;;;1.90;;
76228;SDS011;65021;53.174;18.160;2023-02-24T12:23:30;5.40;;;1.10;;
76228;SDS011;65021;53.174;18.160;2023-02-24T12:51:02;6.20;;;1.40;;
76228;SDS011;65021;53.174;18.160;2023-02-24T12:59:33;9.70;;;1.80;;
76228;SDS011;65021;53.174;18.160;2023-02-24T13:02:11;5.10;;;1.10;;
76228;SDS011;65021;53.174;18.160;2023-02-24T13:13:07;9.20;;;1.50;;
76228;SDS011;65021;53.174;18.160;2023-02-24T13:15:53;7.60;;;1.80;;
76228;SDS011;65021;53.174;18.160;2023-02-24T13:18:25;4.10;;;1.30;;
76228;SDS011;65021;53.174;18.160;2023-02-24T13:21:04;7.20;;;1.70;;
76228;SDS011;65021;53.174;18.160;2023-02-24T13:24:00;6.60;;;2.00;;
76228;SDS011;65021;53.174;18.160;2023-02-24T13:26:28;5.20;;;1.80;;
76228;SDS011;65021;53.174;18.160;2023-02-24T13:29:00;7.10;;;1.70;;
76228;SDS011;65021;53.174;18.160;2023-02-24T13:37:09;9.30;;;1.90;;
76228;SDS011;65021;53.174;18.160;2023-02-24T13:39:37;7.00;;;1.80;;
76228;SDS011;65021;53.174;18.160;2023-02-24T13:44:51;6.60;;;2.40;;
76228;SDS011;65021;53.174;18.160;2023-02-24T13:50:53;12.80;;;2.30;;
76228;SDS011;65021;53.174;18.160;2023-02-24T13:53:29;8.60;;;2.50;;
76228;SDS011;65021;53.174;18.160;2023-02-24T13:59:11;6.60;;;1.90;;
76228;SDS011;65021;53.174;18.160;2023-02-24T14:02:02;9.10;;;1.90;;
76228;SDS011;65021;53.174;18.160;2023-02-24T14:04:52;10.20;;;2.00;;
76228;SDS011;65021;53.174;18.160;2023-02-24T14:07:22;5.00;;;1.30;;
76228;SDS011;65021;53.174;18.160;2023-02-24T14:09:53;5.10;;;1.50;;
76228;SDS011;65021;53.174;18.160;2023-02-24T14:12:24;5.40;;;1.50;;
76228;SDS011;65021;53.174;18.160;2023-02-24T14:14:53;4.40;;;1.30;;
76228;SDS011;65021;53.174;18.160;2023-02-24T14:17:24;8.80;;;1.90;;
76228;SDS011;65021;53.174;18.160;2023-02-24T14:19:54;8.30;;;1.90;;
76228;SDS011;65021;53.174;18.160;2023-02-24T14:22:32;5.50;;;1.50;;
76228;SDS011;65021;53.174;18.160;2023-02-24T14:25:03;4.90;;;1.20;;
76228;SDS011;65021;53.174;18.160;2023-02-24T14:27:35;4.90;;;1.20;;
76228;SDS011;65021;53.174;18.160;2023-02-24T14:30:04;5.90;;;1.60;;
76228;SDS011;65021;53.174;18.160;2023-02-24T14:32:32;4.90;;;1.50;;
76228;SDS011;65021;53.174;18.160;2023-02-24T14:34:59;7.40;;;2.00;;
76228;SDS011;65021;53.174;18.160;2023-02-24T14:37:27;7.90;;;1.70;;
76228;SDS011;65021;53.174;18.160;2023-02-24T14:39:57;7.40;;;1.90;;
76228;SDS011;65021;53.174;18.160;2023-02-24T14:42:25;5.50;;;1.80;;
76228;SDS011;65021;53.174;18.160;2023-02-24T14:44:54;5.50;;;1.60;;
76228;SDS011;65021;53.174;18.160;2023-02-24T14:47:24;7.10;;;1.60;;
76228;SDS011;65021;53.174;18.160;2023-02-24T14:49:57;7.30;;;2.00;;
76228;SDS011;65021;53.174;18.160;2023-02-24T14:52:34;5.40;;;1.60;;
76228;SDS011;65021;53.174;18.160;2023-02-24T14:58:00;8.20;;;1.80;;
76228;SDS011;65021;53.174;18.160;2023-02-24T15:00:47;5.90;;;2.30;;
76228;SDS011;65021;53.174;18.160;2023-02-24T15:05:55;4.40;;;1.50;;
76228;SDS011;65021;53.174;18.160;2023-02-24T15:08:30;5.50;;;1.80;;
76228;SDS011;65021;53.174;18.160;2023-02-24T15:11:20;4.40;;;1.70;;
76228;SDS011;65021;53.174;18.160;2023-02-24T15:13:51;6.70;;;1.70;;
76228;SDS011;65021;53.174;18.160;2023-02-24T15:16:20;8.90;;;2.10;;
76228;SDS011;65021;53.174;18.160;2023-02-24T15:18:50;6.60;;;1.70;;
76228;SDS011;65021;53.174;18.160;2023-02-24T15:21:19;5.20;;;1.50;;
76228;SDS011;65021;53.174;18.160;2023-02-24T15:23:56;6.00;;;2.00;;
76228;SDS011;65021;53.174;18.160;2023-02-24T15:26:25;4.50;;;1.70;;
76228;SDS011;65021;53.174;18.160;2023-02-24T15:28:58;11.90;;;1.90;;
76228;SDS011;65021;53.174;18.160;2023-02-24T15:31:37;7.10;;;1.70;;
76228;SDS011;65021;53.174;18.160;2023-02-24T15:34:04;7.00;;;2.10;;
76228;SDS011;65021;53.174;18.160;2023-02-24T15:36:31;6.60;;;1.70;;
76228;SDS011;65021;53.174;18.160;2023-02-24T15:41:39;5.80;;;1.60;;
76228;SDS011;65021;53.174;18.160;2023-02-24T15:46:57;14.10;;;2.90;;
76228;SDS011;65021;53.174;18.160;2023-02-24T15:49:25;6.20;;;1.80;;
76228;SDS011;65021;53.174;18.160;2023-02-24T15:51:52;4.80;;;1.60;;
76228;SDS011;65021;53.174;18.160;2023-02-24T15:54:28;7.80;;;2.10;;
76228;SDS011;65021;53.174;18.160;2023-02-24T15:57:05;6.50;;;2.10;;
76228;SDS011;65021;53.174;18.160;2023-02-24T15:59:31;5.40;;;2.10;;
76228;SDS011;65021;53.174;18.160;2023-02-24T16:01:58;7.90;;;2.00;;
76228;SDS011;65021;53.174;18.160;2023-02-24T16:04:25;4.00;;;1.70;;
76228;SDS011;65021;53.174;18.160;2023-02-24T16:06:53;4.10;;;1.20;;
76228;SDS011;65021;53.174;18.160;2023-02-24T16:09:25;6.30;;;1.80;;
76228;SDS011;65021;53.174;18.160;2023-02-24T16:12:06;5.00;;;1.50;;
76228;SDS011;65021;53.174;18.160;2023-02-24T16:14:48;6.90;;;1.80;;
76228;SDS011;65021;53.174;18.160;2023-02-24T16:20:00;6.50;;;2.40;;
76228;SDS011;65021;53.174;18.160;2023-02-24T16:22:28;7.50;;;1.90;;
76228;SDS011;65021;53.174;18.160;2023-02-24T16:24:55;4.80;;;1.30;;
76228;SDS011;65021;53.174;18.160;2023-02-24T16:27:22;10.00;;;2.50;;
76228;SDS011;65021;53.174;18.160;2023-02-24T16:29:49;3.90;;;1.30;;
76228;SDS011;65021;53.174;18.160;2023-02-24T16:32:16;4.90;;;1.50;;
76228;SDS011;65021;53.174;18.160;2023-02-24T16:34:43;6.10;;;1.50;;
76228;SDS011;65021;53.174;18.160;2023-02-24T16:37:17;6.20;;;1.30;;
76228;SDS011;65021;53.174;18.160;2023-02-24T16:39:46;6.30;;;2.00;;
76228;SDS011;65021;53.174;18.160;2023-02-24T16:42:15;7.50;;;1.70;;
76228;SDS011;65021;53.174;18.160;2023-02-24T16:44:42;4.60;;;1.00;;
76228;SDS011;65021;53.174;18.160;2023-02-24T16:47:13;5.90;;;1.30;;
76228;SDS011;65021;53.174;18.160;2023-02-24T16:49:42;7.50;;;1.80;;
76228;SDS011;65021;53.174;18.160;2023-02-24T16:52:13;6.10;;;1.90;;
76228;SDS011;65021;53.174;18.160;2023-02-24T16:54:44;6.90;;;1.80;;
76228;SDS011;65021;53.174;18.160;2023-02-24T16:57:11;5.70;;;1.80;;
76228;SDS011;65021;53.174;18.160;2023-02-24T16:59:37;5.70;;;2.30;;
76228;SDS011;65021;53.174;18.160;2023-02-24T17:02:04;8.10;;;2.40;;
76228;SDS011;65021;53.174;18.160;2023-02-24T17:04:31;12.20;;;2.70;;
76228;SDS011;65021;53.174;18.160;2023-02-24T17:06:57;7.10;;;2.20;;
76228;SDS011;65021;53.174;18.160;2023-02-24T17:09:24;6.80;;;2.20;;
76228;SDS011;65021;53.174;18.160;2023-02-24T17:11:53;5.00;;;1.80;;
76228;SDS011;65021;53.174;18.160;2023-02-24T17:14:20;7.70;;;2.80;;
76228;SDS011;65021;53.174;18.160;2023-02-24T17:16:46;8.70;;;2.80;;
76228;SDS011;65021;53.174;18.160;2023-02-24T17:19:13;8.10;;;3.10;;
76228;SDS011;65021;53.174;18.160;2023-02-24T17:21:41;11.40;;;3.30;;
76228;SDS011;65021;53.174;18.160;2023-02-24T17:24:14;5.90;;;2.50;;
76228;SDS011;65021;53.174;18.160;2023-02-24T17:26:41;8.70;;;2.20;;
76228;SDS011;65021;53.174;18.160;2023-02-24T17:29:09;9.00;;;2.90;;
76228;SDS011;65021;53.174;18.160;2023-02-24T17:31:37;7.60;;;2.30;;
76228;SDS011;65021;53.174;18.160;2023-02-24T17:34:03;6.40;;;2.30;;
76228;SDS011;65021;53.174;18.160;2023-02-24T17:36:30;7.20;;;2.20;;
76228;SDS011;65021;53.174;18.160;2023-02-24T17:38:57;8.80;;;2.50;;
76228;SDS011;65021;53.174;18.160;2023-02-24T17:41:24;5.40;;;1.40;;
76228;SDS011;65021;53.174;18.160;2023-02-24T17:43:51;9.10;;;2.60;;
76228;SDS011;65021;53.174;18.160;2023-02-24T17:46:18;7.60;;;2.40;;
76228;SDS011;65021;53.174;18.160;2023-02-24T17:48:46;5.90;;;2.40;;
76228;SDS011;65021;53.174;18.160;2023-02-24T17:51:13;8.60;;;2.30;;
76228;SDS011;65021;53.174;18.160;2023-02-24T17:53:41;9.90;;;2.60;;
76228;SDS011;65021;53.174;18.160;2023-02-24T17:56:08;11.00;;;2.80;;